Time;durP1;ratioP1;P1;durP2;ratioP2;P2;SDS_P1;SDS_P2;PMS_P1;PMS_P2;Temp;Humidity;BMP_temperature;BMP_pressure;BME280_temperature;BME280_humidity;BME280_pressure;Samples;Min_cycle;Max_cycle;Signal;HPM_P1;HPM_P2
2023/05/23 00:00:26;;;;;;;59.03;31.33;;;14.40;99.90;;;;;;5113331;28;20174;-75
2023/05/23 00:02:52;;;;;;;59.33;31.63;;;14.40;99.90;;;;;;5113445;28;20179;-78
2023/05/23 00:05:17;;;;;;;63.17;31.40;;;14.40;99.90;;;;;;5113174;28;20183;-75
2023/05/23 00:07:46;;;;;;;51.47;30.70;;;14.50;99.90;;;;;;5113348;28;20246;-76
2023/05/23 00:10:13;;;;;;;57.60;30.10;;;14.50;99.90;;;;;;5112869;28;20179;-76
2023/05/23 00:12:41;;;;;;;53.87;29.60;;;14.50;99.90;;;;;;5113170;28;20163;-75
2023/05/23 00:15:07;;;;;;;48.67;27.40;;;14.50;99.90;;;;;;5113493;28;20205;-74
2023/05/23 00:17:35;;;;;;;46.60;27.97;;;14.60;99.90;;;;;;5113207;28;20263;-74
2023/05/23 00:20:01;;;;;;;44.97;27.33;;;14.60;99.90;;;;;;5113213;28;20622;-76
2023/05/23 00:22:27;;;;;;;46.30;26.37;;;14.60;99.90;;;;;;5116648;28;20175;-76
2023/05/23 00:24:52;;;;;;;50.47;25.73;;;14.60;99.90;;;;;;5116843;28;20519;-74
2023/05/23 00:27:18;;;;;;;47.47;26.63;;;14.60;99.90;;;;;;5117206;28;20175;-76
2023/05/23 00:29:44;;;;;;;49.77;26.77;;;14.60;99.90;;;;;;5117183;28;20167;-75
2023/05/23 00:32:10;;;;;;;47.50;26.40;;;14.50;99.90;;;;;;5116915;28;20278;-75
2023/05/23 00:34:36;;;;;;;43.70;25.67;;;14.60;99.90;;;;;;5116960;28;20168;-75
2023/05/23 00:37:03;;;;;;;53.47;27.00;;;14.70;99.90;;;;;;5116697;28;20206;-75
2023/05/23 00:39:30;;;;;;;52.07;28.13;;;14.70;99.90;;;;;;5116454;27;20167;-75
2023/05/23 00:41:56;;;;;;;54.47;27.63;;;14.60;99.90;;;;;;5116590;28;20195;-76
2023/05/23 00:44:22;;;;;;;53.67;27.83;;;14.70;99.90;;;;;;5116785;28;20175;-75
2023/05/23 00:46:52;;;;;;;52.40;29.63;;;14.70;99.90;;;;;;5115258;28;20258;-76
2023/05/23 00:49:19;;;;;;;52.80;28.50;;;14.70;99.90;;;;;;5116764;28;20240;-74
2023/05/23 00:51:45;;;;;;;62.03;28.93;;;14.80;99.90;;;;;;5098520;28;20175;-75
2023/05/23 00:54:12;;;;;;;48.63;29.17;;;14.80;99.90;;;;;;5114884;28;20187;-74
2023/05/23 00:56:38;;;;;;;53.30;30.00;;;14.90;99.90;;;;;;5116478;28;20195;-75
2023/05/23 00:59:05;;;;;;;58.20;30.37;;;14.90;99.90;;;;;;5116419;28;20694;-74
2023/05/23 01:01:32;;;;;;;52.77;30.77;;;14.80;99.90;;;;;;5116407;28;20175;-74
2023/05/23 01:03:58;;;;;;;57.93;30.90;;;14.80;99.90;;;;;;5116161;28;20664;-74
2023/05/23 01:06:23;;;;;;;60.13;32.27;;;14.90;99.90;;;;;;5116304;28;20238;-74
2023/05/23 01:08:49;;;;;;;55.20;31.67;;;14.90;99.90;;;;;;5115998;28;20171;-75
2023/05/23 01:11:33;;;;;;;64.83;32.17;;;14.90;99.90;;;;;;5116191;28;20207;-75
2023/05/23 01:14:03;;;;;;;57.23;31.43;;;14.90;99.90;;;;;;5116258;28;20174;-75
2023/05/23 01:16:37;;;;;;;59.37;31.97;;;14.90;99.90;;;;;;5116052;28;20199;-75
2023/05/23 01:19:23;;;;;;;57.23;30.77;;;14.90;99.90;;;;;;5116257;28;20246;-74
2023/05/23 01:21:53;;;;;;;57.57;31.53;;;15.00;99.90;;;;;;5115585;28;20167;-74
2023/05/23 01:25:00;;;;;;;58.70;30.83;;;14.90;99.90;;;;;;5114757;28;20627;-75
2023/05/23 01:27:47;;;;;;;51.27;29.63;;;14.90;99.90;;;;;;5116018;28;20188;-76
2023/05/23 01:30:18;;;;;;;49.13;28.67;;;14.90;99.90;;;;;;5115937;28;20163;-74
2023/05/23 01:32:46;;;;;;;48.90;26.87;;;15.00;99.90;;;;;;5114993;28;20550;-76
2023/05/23 01:35:15;;;;;;;50.90;27.50;;;15.00;99.90;;;;;;5115702;27;20175;-76
2023/05/23 01:37:40;;;;;;;50.07;28.23;;;15.00;99.90;;;;;;5115401;27;20265;-76
2023/05/23 01:40:08;;;;;;;42.70;25.87;;;15.00;99.90;;;;;;5115541;28;20254;-75
2023/05/23 01:42:33;;;;;;;45.43;25.33;;;15.00;99.90;;;;;;5115654;28;20175;-76
2023/05/23 01:44:59;;;;;;;42.93;25.80;;;15.00;99.90;;;;;;5114348;28;20175;-76
2023/05/23 01:47:26;;;;;;;42.10;24.53;;;15.10;99.90;;;;;;5115836;28;20174;-76
2023/05/23 01:49:52;;;;;;;42.33;24.63;;;15.10;99.90;;;;;;5115459;28;20176;-76
2023/05/23 01:52:19;;;;;;;43.47;25.53;;;15.10;99.90;;;;;;5115237;28;20164;-76
2023/05/23 01:54:47;;;;;;;43.83;24.67;;;15.20;99.90;;;;;;5115642;28;20258;-76
2023/05/23 01:57:14;;;;;;;36.57;24.13;;;15.20;99.90;;;;;;5115004;28;20537;-74
2023/05/23 01:59:40;;;;;;;41.33;24.53;;;15.20;99.90;;;;;;5115346;28;20193;-76
2023/05/23 02:02:05;;;;;;;39.07;23.63;;;15.20;99.90;;;;;;5114059;28;20621;-75
2023/05/23 02:04:31;;;;;;;39.07;24.43;;;15.10;99.90;;;;;;5114989;28;20548;-74
2023/05/23 02:06:56;;;;;;;39.23;24.20;;;15.20;99.90;;;;;;5114928;28;20214;-75
2023/05/23 02:09:22;;;;;;;39.23;23.87;;;15.20;99.90;;;;;;5115232;28;20172;-76
2023/05/23 02:11:48;;;;;;;40.13;24.47;;;15.20;99.90;;;;;;5115158;28;20167;-75
2023/05/23 02:14:13;;;;;;;40.13;24.83;;;15.20;99.90;;;;;;5115187;28;20200;-75
2023/05/23 02:16:39;;;;;;;37.67;24.63;;;15.30;99.90;;;;;;5114963;28;20199;-73
2023/05/23 02:19:05;;;;;;;37.50;24.07;;;15.20;99.90;;;;;;5114822;28;20159;-74
2023/05/23 02:21:30;;;;;;;40.83;24.70;;;15.20;99.90;;;;;;5114446;28;20260;-74
2023/05/23 02:23:56;;;;;;;34.07;22.13;;;15.10;99.90;;;;;;5115043;28;20182;-76
2023/05/23 02:26:22;;;;;;;34.70;22.10;;;15.10;99.90;;;;;;5114967;28;20681;-74
2023/05/23 02:28:47;;;;;;;31.23;21.60;;;15.00;99.90;;;;;;5114720;28;20178;-74
2023/05/23 02:31:13;;;;;;;31.83;20.83;;;15.00;99.90;;;;;;5114393;28;20246;-75
2023/05/23 02:33:38;;;;;;;28.13;20.03;;;15.10;99.90;;;;;;5114510;28;20179;-75
2023/05/23 02:36:04;;;;;;;30.23;20.23;;;15.00;99.90;;;;;;5114203;28;20641;-75
2023/05/23 02:38:30;;;;;;;26.30;19.10;;;15.10;99.90;;;;;;5114621;28;20171;-75
2023/05/23 02:41:14;;;;;;;27.30;18.20;;;15.10;99.90;;;;;;5116473;28;20267;-74
2023/05/23 02:43:40;;;;;;;23.73;17.60;;;15.10;99.90;;;;;;5113528;28;20254;-75
2023/05/23 02:46:06;;;;;;;28.27;17.50;;;15.00;99.90;;;;;;5114166;28;20250;-75
2023/05/23 02:48:31;;;;;;;30.20;17.63;;;14.90;99.90;;;;;;5114008;28;20175;-75
2023/05/23 02:50:57;;;;;;;26.37;17.33;;;14.90;99.90;;;;;;5114350;28;20175;-75
2023/05/23 02:53:22;;;;;;;28.37;17.50;;;14.90;99.90;;;;;;5114066;28;20576;-75
2023/05/23 02:55:48;;;;;;;29.43;16.77;;;14.90;99.90;;;;;;5114150;28;20171;-75
2023/05/23 02:58:13;;;;;;;28.70;17.57;;;14.80;99.90;;;;;;5113310;28;20210;-75
2023/05/23 03:00:41;;;;;;;27.27;17.43;;;14.80;99.90;;;;;;5113264;28;20175;-75
2023/05/23 03:03:07;;;;;;;26.07;17.80;;;14.70;99.90;;;;;;5113690;27;20274;-75
2023/05/23 03:05:33;;;;;;;27.03;17.10;;;14.70;99.90;;;;;;5113819;28;20266;-75
2023/05/23 03:07:59;;;;;;;28.97;16.40;;;14.70;99.90;;;;;;5113468;28;20575;-75
2023/05/23 03:10:24;;;;;;;24.37;17.53;;;14.70;99.90;;;;;;5113982;28;20190;-75
2023/05/23 03:12:50;;;;;;;30.83;17.70;;;14.70;99.90;;;;;;5113734;28;20536;-74
2023/05/23 03:15:15;;;;;;;27.07;18.93;;;14.70;99.90;;;;;;5113975;28;20231;-75
2023/05/23 03:17:41;;;;;;;30.13;19.53;;;14.60;99.90;;;;;;5113408;28;20301;-75
2023/05/23 03:20:08;;;;;;;31.47;19.90;;;14.60;99.90;;;;;;5113315;28;20246;-74
2023/05/23 03:22:35;;;;;;;34.97;20.40;;;14.60;99.90;;;;;;5113364;28;20171;-74
2023/05/23 03:25:01;;;;;;;37.30;21.67;;;14.60;99.90;;;;;;5113457;28;20171;-74
2023/05/23 03:27:26;;;;;;;38.50;21.77;;;14.60;99.90;;;;;;5113512;28;20174;-75
2023/05/23 03:29:52;;;;;;;35.10;22.10;;;14.50;99.90;;;;;;5113259;28;20698;-74
2023/05/23 03:32:17;;;;;;;38.13;22.63;;;14.60;99.90;;;;;;5112827;28;20310;-74
2023/05/23 03:34:43;;;;;;;38.83;24.70;;;14.50;99.90;;;;;;5113607;28;20175;-74
2023/05/23 03:37:09;;;;;;;37.77;23.00;;;14.50;99.90;;;;;;5113506;28;20356;-74
2023/05/23 03:39:34;;;;;;;40.77;24.53;;;14.40;99.90;;;;;;5113323;28;20205;-75
2023/05/23 03:42:00;;;;;;;38.37;24.77;;;14.40;99.90;;;;;;5113297;28;20182;-74
2023/05/23 03:44:25;;;;;;;36.27;23.57;;;14.40;99.90;;;;;;5113499;28;20175;-75
2023/05/23 03:46:51;;;;;;;39.27;25.70;;;14.40;99.90;;;;;;5112888;28;20172;-75
2023/05/23 03:49:17;;;;;;;46.40;26.23;;;14.40;99.90;;;;;;5113425;28;20167;-74
2023/05/23 03:51:42;;;;;;;46.00;25.80;;;14.40;99.90;;;;;;5113202;28;20250;-74
2023/05/23 03:54:08;;;;;;;46.43;26.03;;;14.40;99.90;;;;;;5112787;28;20598;-75
2023/05/23 03:56:33;;;;;;;46.07;27.80;;;14.40;99.90;;;;;;5117265;28;20228;-74
2023/05/23 03:59:00;;;;;;;49.00;27.90;;;14.40;99.90;;;;;;5116047;28;20626;-74
2023/05/23 04:01:26;;;;;;;53.50;28.40;;;14.40;99.90;;;;;;5117483;27;20258;-74
2023/05/23 04:03:52;;;;;;;48.40;31.63;;;14.40;99.90;;;;;;5117182;28;20175;-74
2023/05/23 04:06:19;;;;;;;53.93;31.63;;;14.30;99.90;;;;;;5117275;27;20175;-74
2023/05/23 04:08:44;;;;;;;43.70;29.53;;;14.30;99.90;;;;;;5116980;28;20656;-74
2023/05/23 04:11:10;;;;;;;45.73;28.40;;;14.30;99.90;;;;;;5116495;28;20159;-74
2023/05/23 04:13:36;;;;;;;43.57;27.00;;;14.20;99.90;;;;;;5116839;28;20163;-75
2023/05/23 04:16:04;;;;;;;44.57;27.10;;;14.20;99.90;;;;;;5116429;28;20660;-74
2023/05/23 04:18:32;;;;;;;39.33;26.23;;;14.20;99.90;;;;;;5116837;28;20182;-74
2023/05/23 04:20:58;;;;;;;35.63;25.40;;;14.30;99.90;;;;;;5116976;28;20193;-76
2023/05/23 04:23:24;;;;;;;38.83;25.60;;;14.30;99.90;;;;;;5116477;28;20246;-75
2023/05/23 04:25:50;;;;;;;32.87;23.80;;;14.50;99.90;;;;;;5117062;28;20217;-75
2023/05/23 04:28:17;;;;;;;34.43;22.77;;;14.50;99.90;;;;;;5116525;28;20193;-74
2023/05/23 04:30:43;;;;;;;24.03;18.87;;;14.50;99.90;;;;;;5116266;27;20182;-74
2023/05/23 04:33:10;;;;;;;25.77;18.50;;;14.50;99.90;;;;;;5116250;28;20253;-74
2023/05/23 04:35:39;;;;;;;25.47;18.10;;;14.30;99.90;;;;;;5115896;28;20584;-74
2023/05/23 04:38:05;;;;;;;24.03;17.50;;;14.40;99.90;;;;;;5116540;28;20211;-74
2023/05/23 04:40:31;;;;;;;24.10;16.83;;;14.40;99.90;;;;;;5116307;28;20499;-74
2023/05/23 04:42:56;;;;;;;23.50;16.57;;;14.50;99.90;;;;;;5116267;28;20171;-74
2023/05/23 04:45:22;;;;;;;23.27;16.77;;;14.50;99.90;;;;;;5115937;28;20328;-74
2023/05/23 04:47:48;;;;;;;23.67;17.83;;;14.50;99.90;;;;;;5116251;28;20168;-73
2023/05/23 04:50:14;;;;;;;24.93;17.60;;;14.50;99.90;;;;;;5116063;28;20179;-75
2023/05/23 04:52:40;;;;;;;27.97;18.27;;;14.60;99.90;;;;;;5115674;28;20224;-74
2023/05/23 04:55:07;;;;;;;25.37;18.60;;;14.70;99.90;;;;;;5116292;27;20174;-73
2023/05/23 04:57:33;;;;;;;28.53;20.60;;;14.80;99.90;;;;;;5115649;28;20294;-74
2023/05/23 05:00:00;;;;;;;27.70;19.50;;;14.90;99.90;;;;;;5114633;28;20167;-75
2023/05/23 05:02:26;;;;;;;26.33;19.80;;;15.00;99.90;;;;;;5115703;28;20171;-74
2023/05/23 05:04:52;;;;;;;32.37;21.60;;;15.00;99.90;;;;;;5115607;28;20195;-74
2023/05/23 05:07:18;;;;;;;31.03;21.53;;;15.10;99.90;;;;;;5114840;28;20265;-74
2023/05/23 05:09:43;;;;;;;27.80;21.70;;;15.10;99.90;;;;;;5115324;28;20167;-75
2023/05/23 05:12:09;;;;;;;32.20;21.77;;;15.10;99.90;;;;;;5115069;28;20167;-75
2023/05/23 05:14:35;;;;;;;34.03;21.87;;;15.10;99.90;;;;;;5115165;28;20250;-75
2023/05/23 05:17:01;;;;;;;30.10;20.33;;;15.00;99.90;;;;;;5115622;28;20665;-76
2023/05/23 05:19:27;;;;;;;31.87;20.83;;;15.00;99.90;;;;;;5115378;28;20178;-76
2023/05/23 05:21:52;;;;;;;30.60;20.67;;;15.10;99.90;;;;;;5115349;28;20175;-75
2023/05/23 05:24:19;;;;;;;34.47;18.90;;;15.00;99.90;;;;;;5115418;28;20625;-75
2023/05/23 05:26:46;;;;;;;27.57;17.80;;;15.00;99.90;;;;;;5115708;28;20257;-76
2023/05/23 05:29:12;;;;;;;29.70;17.80;;;14.80;99.90;;;;;;5114512;28;20175;-75
2023/05/23 05:31:39;;;;;;;23.20;16.53;;;14.80;99.90;;;;;;5114745;28;20219;-76
2023/05/23 05:34:05;;;;;;;24.27;16.17;;;14.80;99.90;;;;;;5114590;28;20241;-76
2023/05/23 05:36:31;;;;;;;30.50;16.97;;;14.70;99.90;;;;;;5115140;28;20190;-76
2023/05/23 05:38:57;;;;;;;29.03;16.40;;;14.70;99.90;;;;;;5114953;28;20265;-77
2023/05/23 05:41:22;;;;;;;29.30;16.53;;;14.80;99.90;;;;;;5114575;28;20187;-75
2023/05/23 05:43:48;;;;;;;29.97;16.17;;;14.80;99.90;;;;;;5114932;28;20203;-76
2023/05/23 05:46:13;;;;;;;26.97;16.77;;;15.00;99.90;;;;;;5114811;28;20220;-77
2023/05/23 05:48:39;;;;;;;25.50;15.03;;;15.00;99.90;;;;;;5114247;28;20168;-76
2023/05/23 05:51:05;;;;;;;33.33;15.80;;;15.10;99.90;;;;;;5114578;28;20504;-76
2023/05/23 05:53:31;;;;;;;28.10;15.00;;;15.10;99.90;;;;;;5114830;28;20214;-76
2023/05/23 05:55:56;;;;;;;31.37;15.23;;;15.20;99.90;;;;;;5113953;28;20274;-77
2023/05/23 05:58:22;;;;;;;31.70;13.83;;;15.10;99.90;;;;;;5113807;28;20217;-77
2023/05/23 06:00:47;;;;;;;36.40;14.97;;;15.10;99.90;;;;;;5114461;28;20228;-76
2023/05/23 06:03:14;;;;;;;30.90;13.93;;;15.10;99.90;;;;;;5114341;28;20612;-77
2023/05/23 06:05:40;;;;;;;31.90;14.77;;;15.00;99.90;;;;;;5114096;28;20536;-76
2023/05/23 06:08:06;;;;;;;29.27;14.07;;;15.00;99.90;;;;;;5113353;28;20227;-75
2023/05/23 06:10:32;;;;;;;28.60;14.77;;;14.80;99.90;;;;;;5113865;27;20316;-77
2023/05/23 06:12:58;;;;;;;35.77;15.33;;;14.90;99.90;;;;;;5113835;28;20252;-76
2023/05/23 06:15:24;;;;;;;32.67;15.43;;;14.90;99.90;;;;;;5112376;28;20182;-76
2023/05/23 06:17:51;;;;;;;40.20;15.27;;;14.70;99.90;;;;;;5113494;28;20210;-77
2023/05/23 06:20:16;;;;;;;38.83;15.67;;;14.70;99.90;;;;;;5113793;28;20216;-76
2023/05/23 06:22:42;;;;;;;42.40;16.30;;;14.60;99.90;;;;;;5113427;28;20175;-76
2023/05/23 06:25:08;;;;;;;48.40;16.80;;;14.50;99.90;;;;;;5114307;28;20168;-77
2023/05/23 06:27:33;;;;;;;41.63;17.10;;;14.50;99.90;;;;;;5111865;28;20228;-77
2023/05/23 06:29:59;;;;;;;40.30;16.47;;;14.50;99.90;;;;;;5113882;28;20174;-77
2023/05/23 06:32:24;;;;;;;43.10;16.67;;;14.40;99.90;;;;;;5112894;28;20268;-78
2023/05/23 06:34:50;;;;;;;33.10;15.17;;;14.40;99.90;;;;;;5112311;28;20174;-77
2023/05/23 06:37:16;;;;;;;42.03;15.87;;;14.40;99.90;;;;;;5113675;28;20199;-76
2023/05/23 06:39:42;;;;;;;29.00;14.17;;;14.50;99.90;;;;;;5112742;28;20167;-76
2023/05/23 06:42:08;;;;;;;38.53;16.90;;;14.30;99.90;;;;;;5113424;28;20522;-76
2023/05/23 06:44:34;;;;;;;34.10;17.23;;;14.40;99.90;;;;;;5113275;28;20577;-77
2023/05/23 06:46:59;;;;;;;36.03;16.57;;;14.50;99.90;;;;;;5113363;28;20633;-77
2023/05/23 06:49:25;;;;;;;31.17;15.33;;;14.60;99.90;;;;;;5113348;28;20652;-76
2023/05/23 06:51:51;;;;;;;35.90;14.57;;;14.80;99.90;;;;;;5113297;28;20159;-77
2023/05/23 06:54:17;;;;;;;28.73;13.37;;;15.00;99.90;;;;;;5112789;28;20175;-76
2023/05/23 06:56:43;;;;;;;23.33;11.80;;;15.20;99.90;;;;;;5112788;28;20206;-75
2023/05/23 06:59:09;;;;;;;23.47;12.13;;;15.50;94.80;;;;;;5113147;28;20164;-76
2023/05/23 07:01:35;;;;;;;22.67;10.73;;;15.80;81.40;;;;;;5112807;28;20167;-75
2023/05/23 07:04:00;;;;;;;17.10;9.83;;;15.80;60.30;;;;;;5112616;28;20187;-76
2023/05/23 07:06:26;;;;;;;20.67;9.17;;;15.90;49.80;;;;;;5112774;28;20216;-75
2023/05/23 07:08:53;;;;;;;17.47;9.10;;;15.70;47.50;;;;;;5112795;28;20488;-74
2023/05/23 07:11:20;;;;;;;15.80;9.03;;;15.70;44.80;;;;;;5112511;28;20195;-75
2023/05/23 07:13:46;;;;;;;21.17;8.63;;;15.60;42.90;;;;;;5113105;28;20171;-75
2023/05/23 07:16:12;;;;;;;14.27;8.50;;;15.70;38.00;;;;;;5112513;28;20645;-75
2023/05/23 07:18:37;;;;;;;18.97;9.30;;;15.70;32.90;;;;;;5113412;28;20563;-75
2023/05/23 07:21:03;;;;;;;18.60;8.37;;;15.70;31.50;;;;;;5112557;28;20167;-76
2023/05/23 07:23:33;;;;;;;19.33;8.37;;;16.60;20.00;;;;;;5113095;28;20182;-76
2023/05/23 07:25:59;;;;;;;17.77;9.60;;;17.70;1.00;;;;;;5112609;28;20484;-77
2023/05/23 07:28:25;;;;;;;23.30;10.25;;;18.40;1.00;;;;;;5112543;28;20186;-77
2023/05/23 07:30:50;;;;;;;14.85;9.48;;;18.40;1.00;;;;;;5112518;27;20167;-76
2023/05/23 07:33:16;;;;;;;17.10;9.88;;;18.80;1.00;;;;;;5113064;28;20221;-75
2023/05/23 07:35:43;;;;;;;16.33;9.52;;;18.80;1.00;;;;;;5112492;28;20274;-77
2023/05/23 07:38:08;;;;;;;17.08;9.35;;;19.80;1.00;;;;;;5112963;28;20203;-77
2023/05/23 07:40:34;;;;;;;18.67;9.65;;;20.80;99.90;;;;;;5112144;28;20689;-74
2023/05/23 07:43:00;;;;;;;14.48;9.15;;;21.50;1.00;;;;;;5112373;28;20495;-75
2023/05/23 07:45:25;;;;;;;14.65;8.38;;;21.10;1.00;;;;;;5112746;28;20205;-76
2023/05/23 07:47:51;;;;;;;14.10;9.07;;;21.10;1.00;;;;;;5113140;28;20525;-75
2023/05/23 07:50:17;;;;;;;18.58;8.57;;;20.80;99.90;;;;;;5112139;28;20629;-77
2023/05/23 07:52:43;;;;;;;14.25;7.20;;;21.10;99.90;;;;;;5113086;28;20220;-76
2023/05/23 07:55:09;;;;;;;18.40;7.53;;;22.00;1.00;;;;;;5112644;28;20164;-76
2023/05/23 07:57:34;;;;;;;13.73;7.70;;;23.40;1.00;;;;;;5111371;28;20546;-74
2023/05/23 08:00:00;;;;;;;14.98;7.82;;;24.50;44.20;;;;;;5112244;28;20175;-74
2023/05/23 08:02:26;;;;;;;15.23;8.88;;;24.20;1.00;;;;;;5105876;28;20194;-76
2023/05/23 08:04:52;;;;;;;13.02;8.95;;;24.00;99.90;;;;;;5090554;28;20305;-74
2023/05/23 08:07:18;;;;;;;15.60;9.13;;;25.00;99.90;;;;;;5092528;28;20156;-76
2023/05/23 08:09:44;;;;;;;16.83;10.32;;;26.20;1.00;;;;;;5091533;28;20483;-76
2023/05/23 08:12:10;;;;;;;14.93;9.98;;;26.20;1.00;;;;;;5091961;28;20258;-76
2023/05/23 08:14:36;;;;;;;13.63;10.35;;;26.10;1.00;;;;;;5090837;28;20254;-78
2023/05/23 08:17:01;;;;;;;18.65;9.50;;;26.10;1.00;;;;;;5092057;28;20272;-77
2023/05/23 08:19:28;;;;;;;12.10;8.55;;;26.10;1.00;;;;;;5091605;28;20279;-76
2023/05/23 08:21:53;;;;;;;10.52;8.25;;;26.40;1.00;;;;;;5092090;28;20175;-76
2023/05/23 08:24:19;;;;;;;15.15;8.27;;;26.90;1.00;;;;;;5091820;28;20163;-75
2023/05/23 08:26:45;;;;;;;13.70;7.90;;;26.80;1.00;;;;;;5092517;28;20164;-75
2023/05/23 08:29:11;;;;;;;13.63;8.88;;;26.70;1.00;;;;;;5092118;28;20649;-76
2023/05/23 08:31:37;;;;;;;14.30;8.75;;;26.20;1.00;;;;;;5091598;28;20301;-75
2023/05/23 08:34:03;;;;;;;14.23;9.07;;;24.60;99.90;;;;;;5091501;28;20202;-76
2023/05/23 08:36:30;;;;;;;18.13;8.80;;;25.10;99.90;;;;;;5092274;28;20172;-74
2023/05/23 08:38:56;;;;;;;13.38;8.70;;;24.90;78.20;;;;;;5091691;28;20319;-75
2023/05/23 08:41:23;;;;;;;17.90;8.75;;;24.40;99.90;;;;;;5091955;28;20368;-75
2023/05/23 08:43:49;;;;;;;11.00;8.57;;;22.50;99.90;;;;;;5095773;28;20175;-74
2023/05/23 08:46:15;;;;;;;13.93;9.10;;;22.60;99.90;;;;;;5095560;28;20168;-75
2023/05/23 08:48:42;;;;;;;10.80;8.80;;;24.20;1.00;;;;;;5095611;28;20163;-74
2023/05/23 08:51:11;;;;;;;12.13;8.82;;;23.30;1.00;;;;;;5094995;28;20171;-74
2023/05/23 08:53:39;;;;;;;13.65;8.63;;;21.90;99.90;;;;;;5095416;28;20225;-74
2023/05/23 08:56:07;;;;;;;16.08;8.70;;;22.80;1.00;;;;;;5093886;28;20732;-75
2023/05/23 08:58:34;;;;;;;23.17;10.18;;;23.70;99.90;;;;;;5095423;28;20299;-74
2023/05/23 09:01:00;;;;;;;15.95;10.52;;;23.70;99.90;;;;;;5095621;28;20164;-76
2023/05/23 09:03:26;;;;;;;14.85;10.35;;;22.70;1.00;;;;;;5095197;28;20202;-74
2023/05/23 09:05:56;;;;;;;23.23;14.77;;;22.80;99.90;;;;;;5094927;28;20222;-74
2023/05/23 09:08:25;;;;;;;20.23;12.35;;;22.80;1.00;;;;;;5094869;28;20180;-73
2023/05/23 09:10:51;;;;;;;18.08;11.82;;;22.60;1.00;;;;;;5094628;28;20168;-74
2023/05/23 09:13:19;;;;;;;18.35;11.00;;;21.90;8.30;;;;;;5094545;28;20195;-74
2023/05/23 09:16:06;;;;;;;17.45;11.00;;;21.20;1.00;;;;;;5093108;28;20179;-73
2023/05/23 09:18:36;;;;;;;18.33;9.57;;;21.20;1.00;;;;;;5092495;28;20211;-74
2023/05/23 09:21:03;;;;;;;17.45;10.25;;;21.10;1.00;;;;;;5093855;28;20168;-74
2023/05/23 09:23:33;;;;;;;16.25;9.13;;;21.00;1.00;;;;;;5093907;28;20172;-72
2023/05/23 09:26:07;;;;;;;15.45;8.60;;;20.40;99.90;;;;;;5093779;28;20164;-73
2023/05/23 09:28:34;;;;;;;14.27;9.10;;;20.30;99.90;;;;;;5093947;28;20164;-73
2023/05/23 09:31:07;;;;;;;16.00;9.48;;;20.20;1.00;;;;;;5094647;28;20172;-74
2023/05/23 09:33:37;;;;;;;15.90;10.23;;;20.00;1.00;;;;;;5094085;28;20176;-74
2023/05/23 09:36:05;;;;;;;14.30;10.23;;;19.80;1.00;;;;;;5094273;28;20164;-74
2023/05/23 09:38:30;;;;;;;17.65;9.75;;;19.80;1.00;;;;;;5094363;28;20223;-72
2023/05/23 09:40:58;;;;;;;14.30;8.77;;;20.10;1.00;;;;;;5094681;28;20164;-73
2023/05/23 09:43:23;;;;;;;16.63;10.05;;;19.90;1.00;;;;;;5094657;28;20228;-74
2023/05/23 09:45:49;;;;;;;15.50;10.10;;;19.50;1.00;;;;;;5094238;28;20168;-74
2023/05/23 09:48:15;;;;;;;23.17;10.35;;;18.90;1.00;;;;;;5094813;28;20176;-74
2023/05/23 09:50:44;;;;;;;15.98;10.02;;;18.90;1.00;;;;;;5094395;28;20626;-74
2023/05/23 09:53:10;;;;;;;17.48;11.23;;;18.90;1.00;;;;;;5093617;28;20176;-74
2023/05/23 09:55:35;;;;;;;21.33;12.20;;;18.60;1.00;;;;;;5094497;28;20250;-74
2023/05/23 09:58:02;;;;;;;22.73;11.50;;;18.30;1.00;;;;;;5094332;28;20215;-76
2023/05/23 10:00:28;;;;;;;16.77;10.70;;;18.10;1.00;;;;;;5093979;28;20540;-76
2023/05/23 10:03:14;;;;;;;19.23;10.98;;;18.30;1.00;;;;;;5093955;28;20172;-75
2023/05/23 10:05:46;;;;;;;15.07;10.27;;;18.60;1.00;;;;;;5094056;28;20293;-74
2023/05/23 10:08:19;;;;;;;17.63;10.07;;;18.60;1.00;;;;;;5094275;28;20164;-75
2023/05/23 10:10:57;;;;;;;17.65;10.98;;;19.20;1.00;;;;;;5093946;28;20171;-74
2023/05/23 10:13:27;;;;;;;12.38;8.77;;;19.80;1.00;;;;;;5093068;28;20195;-75
2023/05/23 10:16:01;;;;;;;15.32;9.68;;;19.80;1.00;;;;;;5093990;28;20587;-75
2023/05/23 10:18:29;;;;;;;14.38;9.48;;;19.60;1.00;;;;;;5093704;28;20268;-74
2023/05/23 10:21:00;;;;;;;15.10;8.18;;;19.80;1.00;;;;;;5093398;28;20233;-75
2023/05/23 10:23:27;;;;;;;13.00;8.30;;;19.90;1.00;;;;;;5093333;28;20246;-75
2023/05/23 10:25:54;;;;;;;10.10;6.30;;;20.40;1.00;;;;;;5093857;28;20164;-76
2023/05/23 10:28:20;;;;;;;8.52;6.28;;;20.60;99.90;;;;;;5093726;28;20170;-75
2023/05/23 10:30:47;;;;;;;8.15;5.90;;;20.60;99.90;;;;;;5092969;28;20168;-76
2023/05/23 10:33:15;;;;;;;8.13;5.68;;;21.00;1.00;;;;;;5093009;28;20251;-77
2023/05/23 10:35:59;;;;;;;9.07;5.47;;;21.10;1.00;;;;;;5094383;28;20176;-74
2023/05/23 10:38:45;;;;;;;8.27;5.68;;;21.00;1.00;;;;;;5092045;28;20293;-75
2023/05/23 10:41:40;;;;;;;11.13;5.80;;;20.90;48.20;;;;;;5093414;28;20258;-75
2023/05/23 10:44:09;;;;;;;12.75;6.60;;;20.00;1.00;;;;;;5093387;28;20186;-74
2023/05/23 10:47:02;;;;;;;11.00;6.07;;;20.20;1.00;;;;;;5093488;28;20225;-75
2023/05/23 10:49:40;;;;;;;14.38;5.90;;;20.50;1.00;;;;;;5093026;28;20537;-75
2023/05/23 10:52:07;;;;;;;13.20;6.15;;;20.40;1.00;;;;;;5093052;28;20175;-76
2023/05/23 10:54:45;;;;;;;11.75;4.43;;;20.70;99.90;;;;;;5092995;28;20170;-76
2023/05/23 10:57:15;;;;;;;7.13;4.00;;;21.30;1.00;;;;;;5091747;28;20218;-76
2023/05/23 10:59:41;;;;;;;12.10;5.88;;;22.00;99.90;;;;;;5093128;28;20172;-79
2023/05/23 11:02:14;;;;;;;4.90;3.58;;;22.50;1.00;;;;;;5092489;28;20171;-79
2023/05/23 11:04:40;;;;;;;4.50;3.00;;;22.40;99.90;;;;;;5090942;28;20260;-77
2023/05/23 11:07:25;;;;;;;8.25;4.53;;;21.00;1.00;;;;;;5092679;28;20168;-78
2023/05/23 11:10:07;;;;;;;10.48;5.03;;;21.10;30.40;;;;;;5092374;28;20179;-77
2023/05/23 11:12:39;;;;;;;10.00;5.05;;;21.50;1.00;;;;;;5092952;28;20968;-76
2023/05/23 11:15:23;;;;;;;8.70;5.53;;;21.40;1.00;;;;;;5091345;28;20204;-75
2023/05/23 11:17:54;;;;;;;6.47;4.78;;;21.20;1.00;;;;;;5091809;28;20195;-74
2023/05/23 11:20:26;;;;;;;9.65;4.68;;;20.80;1.00;;;;;;5092654;28;20629;-74
2023/05/23 11:23:01;;;;;;;8.43;4.70;;;20.80;1.00;;;;;;5092679;28;20271;-76
2023/05/23 11:25:44;;;;;;;7.15;4.05;;;20.90;1.00;;;;;;5092693;28;20164;-76
2023/05/23 11:28:11;;;;;;;6.90;4.25;;;21.00;1.00;;;;;;5092543;28;20619;-74
2023/05/23 11:30:38;;;;;;;12.02;4.53;;;21.00;99.90;;;;;;5092061;28;20167;-74
2023/05/23 11:33:11;;;;;;;8.85;4.32;;;20.90;1.00;;;;;;5091460;28;20227;-75
2023/05/23 11:35:36;;;;;;;11.75;4.40;;;21.30;99.90;;;;;;5092514;28;20297;-75
2023/05/23 11:38:04;;;;;;;11.20;5.25;;;20.90;1.00;;;;;;5092581;28;20686;-75
2023/05/23 11:40:30;;;;;;;9.35;4.60;;;21.70;1.00;;;;;;5092160;28;20243;-75
2023/05/23 11:42:57;;;;;;;9.82;4.20;;;22.30;1.00;;;;;;5091993;28;20168;-75
2023/05/23 11:45:23;;;;;;;8.70;4.45;;;22.40;99.90;;;;;;5092225;28;20164;-75
2023/05/23 11:47:49;;;;;;;14.48;4.40;;;22.20;99.90;;;;;;5092061;28;20247;-75
2023/05/23 11:50:15;;;;;;;17.50;5.93;;;22.30;1.00;;;;;;5092354;28;20197;-74
2023/05/23 11:52:41;;;;;;;13.43;4.80;;;22.20;99.90;;;;;;5092497;28;20183;-75
2023/05/23 11:55:08;;;;;;;12.32;4.63;;;22.30;1.00;;;;;;5092273;28;20164;-75
2023/05/23 11:57:37;;;;;;;13.35;4.68;;;22.40;99.90;;;;;;5092246;28;20207;-75
2023/05/23 12:00:06;;;;;;;10.40;4.40;;;22.70;1.00;;;;;;5091793;28;20175;-75
2023/05/23 12:02:41;;;;;;;13.68;4.45;;;22.20;43.60;;;;;;5092326;28;20853;-75
2023/05/23 12:05:12;;;;;;;13.38;5.10;;;21.70;1.00;;;;;;5092338;28;20227;-76
2023/05/23 12:07:58;;;;;;;12.55;4.63;;;21.60;1.00;;;;;;5090996;28;20164;-76
2023/05/23 12:10:27;;;;;;;12.65;4.65;;;21.90;1.00;;;;;;5091756;28;20160;-75
2023/05/23 12:12:52;;;;;;;11.68;4.25;;;21.70;99.90;;;;;;5092377;28;20175;-75
2023/05/23 12:15:23;;;;;;;11.35;4.38;;;21.60;1.00;;;;;;5091627;28;20191;-75
2023/05/23 12:17:49;;;;;;;14.27;4.30;;;22.10;1.00;;;;;;5096471;28;20207;-76
2023/05/23 12:20:15;;;;;;;12.63;4.30;;;22.30;99.90;;;;;;5096108;28;20255;-76
2023/05/23 12:22:41;;;;;;;11.30;4.45;;;22.40;1.00;;;;;;5096269;28;20163;-74
2023/05/23 12:25:10;;;;;;;11.43;4.53;;;22.00;99.90;;;;;;5095854;28;20167;-74
2023/05/23 12:27:38;;;;;;;13.82;4.50;;;21.50;99.90;;;;;;5095520;28;20171;-75
2023/05/23 12:30:06;;;;;;;14.07;4.82;;;21.50;27.90;;;;;;5095618;28;20214;-76
2023/05/23 12:32:32;;;;;;;14.55;4.65;;;21.80;1.00;;;;;;5092142;28;20231;-76
2023/05/23 12:34:58;;;;;;;15.77;4.97;;;21.50;99.90;;;;;;5076117;28;20650;-76